Time;durP1;ratioP1;P1;durP2;ratioP2;P2;SDS_P1;SDS_P2;PMS_P1;PMS_P2;Temp;Humidity;BMP_temperature;BMP_pressure;BME280_temperature;BME280_humidity;BME280_pressure;Samples;Min_cycle;Max_cycle;Signal;HPM_P1;HPM_P2
2021/07/19 00:00:51;0.00;0.00;0.62;0.00;0.00;0.62;9.20;7.07;;;27.30;32.80;;;;;;2265844;61;20382;-63
2021/07/19 00:03:36;0.00;0.00;0.62;0.00;0.00;0.62;9.73;7.90;;;27.30;32.80;;;;;;2265836;61;20365;-62
2021/07/19 00:06:22;0.00;0.00;0.62;0.00;0.00;0.62;11.27;7.83;;;27.20;32.80;;;;;;2265457;61;20357;-61
2021/07/19 00:09:06;0.00;0.00;0.62;0.00;0.00;0.62;9.77;7.57;;;27.20;32.80;;;;;;2266137;61;20622;-64
2021/07/19 00:11:52;0.00;0.00;0.62;0.00;0.00;0.62;8.03;6.60;;;27.20;32.80;;;;;;2265908;61;20377;-62
2021/07/19 00:14:36;0.00;0.00;0.62;0.00;0.00;0.62;9.60;7.40;;;27.20;32.90;;;;;;2265574;61;20365;-63
2021/07/19 00:17:20;0.00;0.00;0.62;0.00;0.00;0.62;8.10;7.17;;;27.20;32.90;;;;;;2266126;61;20457;-63
2021/07/19 00:20:09;0.00;0.00;0.62;0.00;0.00;0.62;9.10;6.87;;;27.20;32.90;;;;;;2265957;61;20581;-61
2021/07/19 00:22:53;0.00;0.00;0.62;0.00;0.00;0.62;8.60;7.57;;;27.20;32.90;;;;;;2265728;61;20360;-61
2021/07/19 00:25:38;0.00;0.00;0.62;0.00;0.00;0.62;8.10;7.30;;;27.20;32.80;;;;;;2265750;61;20642;-62
2021/07/19 00:28:23;0.00;0.00;0.62;0.00;0.00;0.62;8.17;7.00;;;27.10;32.80;;;;;;2265523;61;20376;-63
2021/07/19 00:31:08;0.00;0.00;0.62;0.00;0.00;0.62;10.13;7.47;;;27.10;32.80;;;;;;2266176;61;20357;-63
2021/07/19 00:33:52;0.00;0.00;0.62;0.00;0.00;0.62;8.87;6.93;;;27.10;32.80;;;;;;2265290;61;20395;-62
2021/07/19 00:36:38;0.00;0.00;0.62;0.00;0.00;0.62;9.10;6.60;;;27.10;32.90;;;;;;2265471;61;20380;-62
2021/07/19 00:39:23;0.00;0.00;0.62;0.00;0.00;0.62;8.07;7.23;;;27.10;33.00;;;;;;2266040;61;20500;-64
2021/07/19 00:42:08;0.00;0.00;0.62;0.00;0.00;0.62;7.80;7.00;;;27.10;32.80;;;;;;2265323;61;20396;-64
2021/07/19 00:44:53;0.00;0.00;0.62;0.00;0.00;0.62;8.00;6.33;;;27.10;32.90;;;;;;2265819;61;20360;-64
2021/07/19 00:47:38;0.00;0.00;0.62;0.00;0.00;0.62;7.83;6.23;;;27.10;33.00;;;;;;2265985;61;20405;-64
2021/07/19 00:50:25;0.00;0.00;0.62;0.00;0.00;0.62;8.23;7.10;;;27.00;33.00;;;;;;2265133;61;20728;-62
2021/07/19 00:53:12;0.00;0.00;0.62;0.00;0.00;0.62;8.63;7.03;;;27.00;33.00;;;;;;2265768;61;20383;-63
2021/07/19 00:55:59;0.00;0.00;0.62;0.00;0.00;0.62;7.60;6.30;;;27.00;33.10;;;;;;2265107;61;20357;-64
2021/07/19 00:58:47;0.00;0.00;0.62;0.00;0.00;0.62;7.00;6.00;;;27.00;33.20;;;;;;2265622;61;20357;-62
2021/07/19 01:01:36;0.00;0.00;0.62;0.00;0.00;0.62;9.00;6.47;;;27.00;33.20;;;;;;2266068;61;20433;-61
2021/07/19 01:04:24;0.00;0.00;0.62;0.00;0.00;0.62;7.77;5.80;;;27.00;33.20;;;;;;2265453;61;20365;-62
2021/07/19 01:07:11;0.00;0.00;0.62;0.00;0.00;0.62;7.40;6.30;;;27.00;33.20;;;;;;2265152;61;20753;-61
2021/07/19 01:09:58;0.00;0.00;0.62;0.00;0.00;0.62;10.40;6.23;;;27.00;33.20;;;;;;2265445;61;20352;-63
2021/07/19 01:12:46;0.00;0.00;0.62;0.00;0.00;0.62;8.77;6.87;;;27.00;33.30;;;;;;2265265;61;20369;-62
2021/07/19 01:15:37;0.00;0.00;0.62;0.00;0.00;0.62;8.30;6.07;;;27.00;33.20;;;;;;2265921;61;20396;-63
2021/07/19 01:18:23;0.00;0.00;0.62;0.00;0.00;0.62;8.10;7.27;;;27.00;33.30;;;;;;2265187;61;20602;-64
2021/07/19 01:21:47;0.00;0.00;0.62;0.00;0.00;0.62;5.53;4.90;;;27.00;33.30;;;;;;2265548;61;20454;-64
2021/07/19 01:24:47;0.00;0.00;0.62;0.00;0.00;0.62;11.07;6.30;;;27.00;33.30;;;;;;2265810;61;20391;-64
2021/07/19 01:28:05;0.00;0.00;0.62;0.00;0.00;0.62;9.67;7.03;;;27.00;33.30;;;;;;2265076;61;20419;-60
2021/07/19 01:30:52;0.00;0.00;0.62;0.00;0.00;0.62;8.13;6.20;;;27.00;33.30;;;;;;2265835;61;20416;-64
2021/07/19 01:33:43;0.00;0.00;0.62;0.00;0.00;0.62;7.77;5.40;;;27.00;33.40;;;;;;2265102;61;20369;-63
2021/07/19 01:36:31;0.00;0.00;0.62;0.00;0.00;0.62;7.57;6.17;;;26.90;33.40;;;;;;2264934;61;20725;-64
2021/07/19 01:39:41;0.00;0.00;0.62;0.00;0.00;0.62;8.37;6.60;;;26.90;33.40;;;;;;2265470;61;20762;-62
2021/07/19 01:42:27;0.00;0.00;0.62;0.00;0.00;0.62;9.47;6.20;;;26.90;33.50;;;;;;2265066;61;20654;-64
2021/07/19 01:45:12;0.00;0.00;0.62;0.00;0.00;0.62;6.27;5.30;;;26.90;33.40;;;;;;2265304;61;20437;-63
2021/07/19 01:48:02;0.00;0.00;0.62;0.00;0.00;0.62;8.63;6.97;;;26.90;33.50;;;;;;2265022;61;20376;-62
2021/07/19 01:50:51;0.00;0.00;0.62;0.00;0.00;0.62;9.93;6.20;;;26.90;33.50;;;;;;2265049;61;20361;-64
2021/07/19 01:53:41;0.00;0.00;0.62;0.00;0.00;0.62;7.03;5.70;;;26.90;33.50;;;;;;2265389;61;20397;-63
2021/07/19 01:56:27;0.00;0.00;0.62;0.00;0.00;0.62;6.37;5.23;;;26.90;33.60;;;;;;2264994;61;20415;-64
2021/07/19 01:59:12;0.00;0.00;0.62;0.00;0.00;0.62;15.73;7.00;;;26.90;33.60;;;;;;2265074;61;20647;-64
2021/07/19 02:02:06;0.00;0.00;0.62;0.00;0.00;0.62;9.93;6.03;;;26.90;33.60;;;;;;2265108;61;20698;-64
2021/07/19 02:04:52;0.00;0.00;0.62;0.00;0.00;0.62;9.07;5.80;;;26.90;33.60;;;;;;2264897;61;20709;-62
2021/07/19 02:07:39;0.00;0.00;0.62;0.00;0.00;0.62;6.53;5.90;;;26.90;33.60;;;;;;2265459;61;20385;-64
2021/07/19 02:10:28;0.00;0.00;0.62;0.00;0.00;0.62;7.90;6.03;;;26.80;33.60;;;;;;2265006;61;20720;-62
2021/07/19 02:13:18;0.00;0.00;0.62;0.00;0.00;0.62;8.17;6.20;;;26.80;33.60;;;;;;2264985;61;20514;-64
2021/07/19 02:16:05;0.00;0.00;0.62;0.00;0.00;0.62;10.43;6.10;;;26.80;34.30;;;;;;2265301;61;20574;-64
2021/07/19 02:18:53;0.00;0.00;0.62;0.00;0.00;0.62;8.10;6.03;;;26.80;33.60;;;;;;2265625;61;20685;-63
2021/07/19 02:21:44;0.00;0.00;0.62;0.00;0.00;0.62;9.10;6.43;;;26.80;33.60;;;;;;2265476;61;20380;-63
2021/07/19 02:24:40;0.00;0.00;0.62;0.00;0.00;0.62;8.23;6.10;;;26.70;33.60;;;;;;2264974;61;20364;-63
2021/07/19 02:27:38;0.00;0.00;0.62;0.00;0.00;0.62;9.20;6.30;;;26.80;33.70;;;;;;2262316;61;20731;-63
2021/07/19 02:30:24;0.00;0.00;0.62;0.00;0.00;0.62;7.83;5.50;;;26.80;33.80;;;;;;2265376;61;20392;-64
2021/07/19 02:33:11;0.00;0.00;0.62;0.00;0.00;0.62;7.27;6.40;;;26.80;33.80;;;;;;2265023;61;20689;-64
2021/07/19 02:35:59;0.00;0.00;0.62;0.00;0.00;0.62;6.90;5.90;;;26.70;33.80;;;;;;2264782;61;20472;-62
2021/07/19 02:38:54;0.00;0.00;0.62;0.00;0.00;0.62;10.00;5.57;;;26.70;33.90;;;;;;2265056;61;20392;-61
2021/07/19 02:41:43;0.00;0.00;0.62;0.00;0.00;0.62;6.40;5.50;;;26.70;33.90;;;;;;2264829;61;20464;-62
2021/07/19 02:44:31;0.00;0.00;0.62;0.00;0.00;0.62;8.03;5.93;;;26.70;33.90;;;;;;2265258;61;20395;-63
2021/07/19 02:47:34;0.00;0.00;0.62;0.00;0.00;0.62;7.80;5.67;;;26.70;33.90;;;;;;2264998;61;20412;-61
2021/07/19 02:50:24;0.00;0.00;0.62;0.00;0.00;0.62;9.77;6.40;;;26.70;34.00;;;;;;2264489;61;20748;-64
2021/07/19 02:53:12;0.00;0.00;0.62;0.00;0.00;0.62;6.83;5.63;;;26.70;34.00;;;;;;2265723;61;20767;-61
2021/07/19 02:56:01;0.00;0.00;0.62;0.00;0.00;0.62;9.00;5.63;;;26.70;34.00;;;;;;2264988;61;20396;-64
2021/07/19 02:58:50;0.00;0.00;0.62;0.00;0.00;0.62;6.97;5.70;;;26.60;34.10;;;;;;2265082;61;20361;-62
2021/07/19 03:01:35;0.00;0.00;0.62;0.00;0.00;0.62;7.07;5.67;;;26.60;34.10;;;;;;2264853;61;20385;-62
2021/07/19 03:04:21;0.00;0.00;0.62;0.00;0.00;0.62;11.27;5.20;;;26.60;34.10;;;;;;2264689;61;20408;-64
2021/07/19 03:07:09;0.00;0.00;0.62;0.00;0.00;0.62;9.33;5.97;;;26.60;34.10;;;;;;2265418;61;20739;-62
2021/07/19 03:10:00;0.00;0.00;0.62;0.00;0.00;0.62;8.03;5.67;;;26.60;34.10;;;;;;2264892;61;20500;-63
2021/07/19 03:12:48;0.00;0.00;0.62;0.00;0.00;0.62;7.90;5.57;;;26.60;34.10;;;;;;2264836;61;20388;-61
2021/07/19 03:15:35;0.00;0.00;0.62;0.00;0.00;0.62;8.17;5.40;;;26.60;34.20;;;;;;2265071;61;20360;-64
2021/07/19 03:18:23;0.00;0.00;0.62;0.00;0.00;0.62;7.87;5.60;;;26.60;34.20;;;;;;2265268;61;20420;-65
2021/07/19 03:21:09;0.00;0.00;0.62;0.00;0.00;0.62;7.23;5.33;;;26.60;34.20;;;;;;2265477;61;20388;-64
2021/07/19 03:23:58;0.00;0.00;0.62;0.00;0.00;0.62;8.47;6.30;;;26.60;34.20;;;;;;2264703;61;20395;-61
2021/07/19 03:26:43;0.00;0.00;0.62;0.00;0.00;0.62;8.63;6.00;;;26.50;34.20;;;;;;2264616;61;20749;-61
2021/07/19 03:29:31;0.00;0.00;0.62;0.00;0.00;0.62;6.40;5.80;;;26.50;34.30;;;;;;2265554;61;20391;-65
2021/07/19 03:32:35;0.00;0.00;0.62;0.00;0.00;0.62;9.60;5.80;;;26.50;34.20;;;;;;2265412;61;20407;-64
2021/07/19 03:35:31;0.00;0.00;0.62;0.00;0.00;0.62;4.93;4.43;;;26.50;34.00;;;;;;2265296;61;20404;-64
2021/07/19 03:38:18;0.00;0.00;0.62;0.00;0.00;0.62;5.00;4.50;;;26.50;33.90;;;;;;2265728;61;20415;-62
2021/07/19 03:41:33;0.00;0.00;0.62;0.00;0.00;0.62;7.97;6.10;;;26.50;33.90;;;;;;2265435;61;20385;-64
2021/07/19 03:44:24;0.00;0.00;0.62;0.00;0.00;0.62;9.90;5.23;;;26.40;33.90;;;;;;2265790;61;20473;-63
2021/07/19 03:47:12;0.00;0.00;0.62;0.00;0.00;0.62;6.37;4.77;;;26.40;33.90;;;;;;2265679;61;20372;-61
2021/07/19 03:49:59;0.00;0.00;0.62;0.00;0.00;0.62;7.03;4.90;;;26.40;34.00;;;;;;2265382;61;20777;-62
2021/07/19 03:52:48;0.00;0.00;0.62;0.00;0.00;0.62;6.03;4.70;;;26.40;33.90;;;;;;2266130;61;20380;-61
2021/07/19 03:55:42;0.00;0.00;0.62;0.00;0.00;0.62;5.90;4.40;;;26.40;34.00;;;;;;2265173;61;20762;-64
2021/07/19 03:58:30;0.00;0.00;0.62;0.00;0.00;0.62;9.03;5.87;;;26.40;33.90;;;;;;2266149;61;20709;-63
2021/07/19 04:01:16;0.00;0.00;0.62;0.00;0.00;0.62;5.73;5.13;;;26.30;33.90;;;;;;2265731;61;20389;-64
2021/07/19 04:04:07;0.00;0.00;0.62;0.00;0.00;0.62;6.80;4.90;;;26.30;33.90;;;;;;2262530;61;20586;-63
2021/07/19 04:06:55;0.00;0.00;0.62;0.00;0.00;0.62;6.87;4.30;;;26.30;33.90;;;;;;2265647;61;20376;-60
2021/07/19 04:09:41;0.00;0.00;0.62;0.00;0.00;0.62;7.10;5.03;;;26.30;34.00;;;;;;2265243;61;20415;-63
2021/07/19 04:12:26;0.00;0.00;0.62;0.00;0.00;0.62;6.00;4.10;;;26.30;34.10;;;;;;2265389;61;20353;-64
2021/07/19 04:15:13;0.00;0.00;0.62;0.00;0.00;0.62;7.30;4.60;;;26.30;33.90;;;;;;2265265;61;21115;-61
2021/07/19 04:17:58;0.00;0.00;0.62;0.00;0.00;0.62;6.93;4.27;;;26.40;34.00;;;;;;2265263;61;20385;-64
2021/07/19 04:20:56;0.00;0.00;0.62;0.00;0.00;0.62;5.10;4.60;;;26.40;34.10;;;;;;2265781;61;20385;-64
2021/07/19 04:23:44;0.00;0.00;0.62;0.00;0.00;0.62;7.70;5.20;;;26.40;34.10;;;;;;2265400;61;20796;-64
2021/07/19 04:26:38;0.00;0.00;0.62;0.00;0.00;0.62;5.47;4.30;;;26.40;34.10;;;;;;2265040;61;20454;-64
2021/07/19 04:29:26;0.00;0.00;0.62;0.00;0.00;0.62;6.80;5.27;;;26.40;34.10;;;;;;2265967;61;20392;-64
2021/07/19 04:32:19;0.00;0.00;0.62;0.00;0.00;0.62;7.53;4.83;;;26.40;34.20;;;;;;2271704;48;20821;-62
2021/07/19 04:35:12;0.00;0.00;0.62;0.00;0.00;0.62;7.40;4.70;;;26.40;34.30;;;;;;2265258;61;20785;-62
2021/07/19 04:37:59;0.00;0.00;0.62;0.00;0.00;0.62;6.00;4.73;;;26.40;34.30;;;;;;2268340;61;20420;-67
2021/07/19 04:40:46;0.00;0.00;0.62;0.00;0.00;0.62;5.90;4.73;;;26.40;34.20;;;;;;2265405;61;20501;-63
2021/07/19 04:43:30;0.00;0.00;0.62;0.00;0.00;0.62;5.70;4.23;;;26.40;34.20;;;;;;2266030;61;20361;-62
2021/07/19 04:46:15;0.00;0.00;0.62;0.00;0.00;0.62;5.53;4.97;;;26.40;34.20;;;;;;2265423;61;20393;-63
2021/07/19 04:49:00;0.00;0.00;0.62;0.00;0.00;0.62;10.73;5.37;;;26.40;34.20;;;;;;2265530;61;20357;-67
2021/07/19 04:51:46;0.00;0.00;0.62;0.00;0.00;0.62;7.37;4.53;;;26.50;34.40;;;;;;2266076;61;20388;-64
2021/07/19 04:54:38;0.00;0.00;0.62;0.00;0.00;0.62;5.10;4.60;;;26.50;34.50;;;;;;2265355;61;20396;-65
2021/07/19 04:57:24;0.00;0.00;0.62;0.00;0.00;0.62;13.97;4.77;;;26.50;34.60;;;;;;2265950;61;20417;-64
2021/07/19 05:00:10;0.00;0.00;0.62;0.00;0.00;0.62;8.90;4.90;;;26.50;35.20;;;;;;2265700;61;20388;-63
2021/07/19 05:02:57;0.00;0.00;0.62;0.00;0.00;0.62;6.20;4.50;;;26.50;34.60;;;;;;2265783;61;20396;-64
2021/07/19 05:05:43;0.00;0.00;0.62;0.00;0.00;0.62;7.30;4.90;;;26.50;34.60;;;;;;2265884;61;20357;-64
2021/07/19 05:08:29;0.00;0.00;0.62;0.00;0.00;0.62;8.13;5.10;;;26.50;34.50;;;;;;2265066;61;20412;-62
2021/07/19 05:11:16;0.00;0.00;0.62;0.00;0.00;0.62;9.40;4.83;;;26.50;34.60;;;;;;2265973;61;20425;-65
2021/07/19 05:14:02;0.00;0.00;0.62;0.00;0.00;0.62;6.03;4.87;;;26.50;34.60;;;;;;2265201;61;20381;-62
2021/07/19 05:16:47;0.00;0.00;0.62;0.00;0.00;0.62;9.53;5.33;;;26.50;34.50;;;;;;2264985;61;20377;-62
2021/07/19 05:19:36;0.00;0.00;0.62;0.00;0.00;0.62;7.70;4.80;;;26.50;34.60;;;;;;2266081;61;20377;-63
2021/07/19 05:22:20;0.00;0.00;0.62;0.00;0.00;0.62;9.00;5.87;;;26.50;34.60;;;;;;2266044;61;20341;-66
2021/07/19 05:25:07;0.00;0.00;0.62;0.00;0.00;0.62;8.97;6.43;;;26.50;34.60;;;;;;2265701;61;20377;-64
2021/07/19 05:28:06;0.00;0.00;0.62;0.00;0.00;0.62;5.57;4.50;;;26.50;34.60;;;;;;2265944;61;20377;-64
2021/07/19 05:30:53;0.00;0.00;0.62;0.00;0.00;0.62;8.33;5.70;;;26.50;34.60;;;;;;2265421;61;20380;-64
2021/07/19 05:33:38;0.00;0.00;0.62;0.00;0.00;0.62;8.40;5.27;;;26.40;34.70;;;;;;2265810;61;20357;-64
2021/07/19 05:36:23;0.00;0.00;0.62;0.00;0.00;0.62;9.67;5.43;;;26.40;34.60;;;;;;2265344;61;20457;-66
2021/07/19 05:39:07;0.00;0.00;0.62;0.00;0.00;0.62;9.77;5.50;;;26.40;34.50;;;;;;2265459;61;20356;-63
2021/07/19 05:41:53;0.00;0.00;0.62;0.00;0.00;0.62;8.60;4.53;;;26.40;34.50;;;;;;2265594;61;20416;-64
2021/07/19 05:44:39;0.00;0.00;0.62;0.00;0.00;0.62;8.73;5.47;;;26.40;34.40;;;;;;2265827;61;20353;-63
2021/07/19 05:47:24;0.00;0.00;0.62;0.00;0.00;0.62;7.23;5.27;;;26.40;34.40;;;;;;2265835;61;20372;-62
2021/07/19 05:50:11;0.00;0.00;0.62;0.00;0.00;0.62;6.93;4.00;;;26.30;34.30;;;;;;2265948;61;20353;-62
2021/07/19 05:52:56;0.00;0.00;0.62;0.00;0.00;0.62;6.80;4.73;;;26.30;34.30;;;;;;2265435;61;20613;-61
2021/07/19 05:55:42;0.00;0.00;0.62;0.00;0.00;0.62;10.73;5.27;;;26.30;34.40;;;;;;2265443;61;20767;-62
2021/07/19 05:58:26;0.00;0.00;0.62;0.00;0.00;0.62;5.97;5.03;;;26.30;34.40;;;;;;2265809;61;20476;-65
2021/07/19 06:01:12;0.00;0.00;0.62;0.00;0.00;0.62;6.40;4.70;;;26.30;34.00;;;;;;2265304;61;20461;-61
2021/07/19 06:03:59;0.00;0.00;0.62;0.00;0.00;0.62;5.30;4.30;;;26.30;34.10;;;;;;2265815;61;20369;-63
2021/07/19 06:06:44;0.00;0.00;0.62;0.00;0.00;0.62;5.67;4.30;;;26.30;34.00;;;;;;2265698;61;20423;-63
2021/07/19 06:09:28;0.00;0.00;0.62;0.00;0.00;0.62;6.70;4.10;;;26.40;34.10;;;;;;2265805;61;20357;-64
2021/07/19 06:12:13;0.00;0.00;0.62;0.00;0.00;0.62;7.13;4.00;;;26.40;34.00;;;;;;2265654;61;20396;-61
2021/07/19 06:14:58;0.00;0.00;0.62;0.00;0.00;0.62;6.30;4.10;;;26.40;33.90;;;;;;2265357;61;20741;-64
2021/07/19 06:17:44;0.00;0.00;0.62;0.00;0.00;0.62;8.97;4.50;;;26.40;34.00;;;;;;2265654;61;20619;-63
2021/07/19 06:20:29;0.00;0.00;0.62;0.00;0.00;0.62;5.87;4.20;;;26.40;34.00;;;;;;2265803;61;20770;-65
2021/07/19 06:23:13;0.00;0.00;0.62;0.00;0.00;0.62;7.53;4.20;;;26.40;34.00;;;;;;2264994;61;20372;-65
2021/07/19 06:25:58;0.00;0.00;0.62;0.00;0.00;0.62;6.57;4.00;;;26.40;33.90;;;;;;2265687;61;20430;-63
2021/07/19 06:28:43;0.00;0.00;0.62;0.00;0.00;0.62;5.33;3.87;;;26.40;33.80;;;;;;2265923;61;20392;-63
2021/07/19 06:31:27;0.00;0.00;0.62;0.00;0.00;0.62;8.30;4.00;;;26.40;33.70;;;;;;2265333;61;20423;-64
2021/07/19 06:34:14;0.00;0.00;0.62;0.00;0.00;0.62;6.00;3.93;;;26.40;33.70;;;;;;2265737;61;20415;-67
2021/07/19 06:36:58;0.00;0.00;0.62;0.00;0.00;0.62;6.07;3.53;;;26.50;33.70;;;;;;2265253;61;20385;-65
2021/07/19 06:39:43;0.00;0.00;0.62;0.00;0.00;0.62;9.83;4.53;;;26.50;33.60;;;;;;2265552;61;20357;-67
2021/07/19 06:42:28;0.00;0.00;0.62;0.00;0.00;0.62;6.80;3.90;;;26.50;33.50;;;;;;2265828;61;20399;-63
2021/07/19 06:45:14;0.00;0.00;0.62;0.00;0.00;0.62;6.30;3.40;;;26.50;33.60;;;;;;2265369;61;20468;-62
2021/07/19 06:47:59;0.00;0.00;0.62;0.00;0.00;0.62;5.93;3.53;;;26.50;33.40;;;;;;2265641;61;20404;-62
2021/07/19 06:50:45;0.00;0.00;0.62;0.00;0.00;0.62;9.43;4.40;;;26.50;33.40;;;;;;2265856;61;20368;-64
2021/07/19 06:53:30;0.00;0.00;0.62;0.00;0.00;0.62;4.80;3.63;;;26.50;33.10;;;;;;2265170;61;20404;-63
2021/07/19 06:56:15;0.00;0.00;0.62;0.00;0.00;0.62;5.87;4.40;;;26.50;33.10;;;;;;2265614;61;20353;-66
2021/07/19 06:58:59;0.00;0.00;0.62;0.00;0.00;0.62;6.40;4.10;;;26.50;33.00;;;;;;2265460;61;20369;-64
2021/07/19 07:01:44;0.00;0.00;0.62;0.00;0.00;0.62;4.53;3.37;;;26.50;33.10;;;;;;2265521;61;20744;-65
2021/07/19 07:04:29;0.00;0.00;0.62;0.00;0.00;0.62;7.83;4.30;;;26.50;33.10;;;;;;2265837;61;20407;-62
2021/07/19 07:07:15;0.00;0.00;0.62;0.00;0.00;0.62;4.30;3.33;;;26.50;33.00;;;;;;2265978;61;20377;-64
2021/07/19 07:09:59;0.00;0.00;0.62;0.00;0.00;0.62;7.27;4.20;;;26.50;32.90;;;;;;2266342;61;20380;-65
2021/07/19 07:12:44;0.00;0.00;0.62;0.00;0.00;0.62;7.73;4.33;;;26.50;32.80;;;;;;2266116;61;20429;-61
2021/07/19 07:15:29;0.00;0.00;0.62;0.00;0.00;0.62;9.07;3.63;;;26.40;32.80;;;;;;2265701;61;20709;-63
2021/07/19 07:18:14;0.00;0.00;0.62;0.00;0.00;0.62;6.70;3.60;;;26.50;32.70;;;;;;2266428;61;20752;-67
2021/07/19 07:20:59;0.00;0.00;0.62;0.00;0.00;0.62;7.33;3.70;;;26.50;32.90;;;;;;2266033;61;20643;-63
2021/07/19 07:23:44;0.00;0.00;0.62;0.00;0.00;0.62;8.60;4.07;;;26.50;32.90;;;;;;2266101;61;20624;-62
2021/07/19 07:26:29;0.00;0.00;0.62;0.00;0.00;0.62;8.03;4.07;;;26.50;32.60;;;;;;2266257;61;20427;-62
2021/07/19 07:29:13;0.00;0.00;0.62;0.00;0.00;0.62;5.27;3.40;;;26.40;32.50;;;;;;2265833;61;20380;-60
2021/07/19 07:31:58;0.00;0.00;0.62;0.00;0.00;0.62;5.47;3.60;;;26.40;32.60;;;;;;2266045;61;20427;-62
2021/07/19 07:34:42;0.00;0.00;0.62;0.00;0.00;0.62;8.00;3.97;;;26.40;32.50;;;;;;2265940;61;20357;-64
2021/07/19 07:37:28;0.00;0.00;0.62;0.00;0.00;0.62;6.83;4.50;;;26.40;32.50;;;;;;2265065;61;20465;-62
2021/07/19 07:40:17;0.00;0.00;0.62;0.00;0.00;0.62;5.23;3.43;;;26.40;32.50;;;;;;2266367;61;20409;-64
2021/07/19 07:43:02;0.00;0.00;0.62;0.00;0.00;0.62;7.63;4.07;;;26.40;32.40;;;;;;2266157;61;20369;-62
2021/07/19 07:45:49;0.00;0.00;0.62;0.00;0.00;0.62;6.83;4.33;;;26.40;32.50;;;;;;2266039;61;20353;-62
2021/07/19 07:48:35;0.00;0.00;0.62;0.00;0.00;0.62;14.03;4.57;;;26.40;32.20;;;;;;2265880;61;20384;-63
2021/07/19 07:51:20;0.00;0.00;0.62;0.00;0.00;0.62;4.53;3.70;;;26.50;32.50;;;;;;2265718;61;20748;-62
2021/07/19 07:54:05;0.00;0.00;0.62;0.00;0.00;0.62;9.37;4.20;;;26.40;32.40;;;;;;2266167;61;20364;-63
2021/07/19 07:56:51;0.00;0.00;0.62;0.00;0.00;0.62;5.10;3.37;;;26.40;31.90;;;;;;2266025;61;20373;-61
2021/07/19 07:59:37;0.00;0.00;0.62;0.00;0.00;0.62;6.27;4.00;;;26.40;31.70;;;;;;2265502;61;20590;-63
2021/07/19 08:02:21;0.00;0.00;0.62;0.00;0.00;0.62;7.30;3.90;;;26.40;31.90;;;;;;2266387;61;20437;-64
2021/07/19 08:05:07;0.00;0.00;0.62;0.00;0.00;0.62;7.07;4.20;;;26.40;32.00;;;;;;2265957;61;20390;-64
2021/07/19 08:07:52;0.00;0.00;0.62;0.00;0.00;0.62;8.03;3.70;;;26.40;32.00;;;;;;2266078;61;20380;-63
2021/07/19 08:10:37;0.00;0.00;0.62;0.00;0.00;0.62;5.10;3.60;;;26.40;31.70;;;;;;2266286;61;20350;-61
2021/07/19 08:13:23;0.00;0.00;0.62;0.00;0.00;0.62;8.40;4.43;;;26.40;31.60;;;;;;2265810;61;20407;-63
2021/07/19 08:16:08;0.00;0.00;0.62;0.00;0.00;0.62;5.13;3.00;;;26.40;31.60;;;;;;2265902;61;20819;-62
2021/07/19 08:18:52;0.00;0.00;0.62;0.00;0.00;0.62;4.87;3.20;;;26.40;31.70;;;;;;2265954;61;20361;-62
2021/07/19 08:21:40;0.00;0.00;0.62;0.00;0.00;0.62;3.97;2.93;;;26.40;31.80;;;;;;2265726;61;20388;-62
2021/07/19 08:24:25;0.00;0.00;0.62;0.00;0.00;0.62;3.90;3.10;;;26.40;31.90;;;;;;2266248;61;20400;-63
2021/07/19 08:27:10;0.00;0.00;0.62;0.00;0.00;0.62;6.37;3.67;;;26.40;31.70;;;;;;2265953;61;20622;-61
2021/07/19 08:29:55;0.00;0.00;0.62;0.00;0.00;0.62;6.37;3.30;;;26.40;31.50;;;;;;2265948;61;20361;-64
2021/07/19 08:32:40;0.00;0.00;0.62;0.00;0.00;0.62;5.57;3.53;;;26.40;31.30;;;;;;2266131;61;20419;-63
2021/07/19 08:35:26;0.00;0.00;0.62;0.00;0.00;0.62;4.97;3.47;;;26.40;31.30;;;;;;2265474;61;20569;-63
2021/07/19 08:38:10;0.00;0.00;0.62;0.00;0.00;0.62;4.43;2.60;;;26.40;31.20;;;;;;2265926;61;20376;-63
2021/07/19 08:40:55;0.00;0.00;0.62;0.00;0.00;0.62;4.00;3.27;;;26.40;31.00;;;;;;2265990;61;20444;-65
2021/07/19 08:43:41;0.00;0.00;0.62;0.00;0.00;0.62;7.30;3.70;;;26.40;31.00;;;;;;2265790;61;20365;-63
2021/07/19 08:46:27;0.00;0.00;0.62;0.00;0.00;0.62;5.90;3.40;;;26.40;31.00;;;;;;2266024;61;20373;-64
2021/07/19 08:49:12;0.00;0.00;0.62;0.00;0.00;0.62;7.80;3.43;;;26.40;31.00;;;;;;2266020;61;20365;-64
2021/07/19 08:51:57;0.00;0.00;0.62;0.00;0.00;0.62;7.13;3.83;;;26.40;30.60;;;;;;2265560;61;20407;-64
2021/07/19 08:54:47;0.00;0.00;0.62;0.00;0.00;0.62;4.43;3.37;;;26.40;30.40;;;;;;2265894;61;20747;-65
2021/07/19 08:57:32;0.00;0.00;0.62;0.00;0.00;0.62;5.20;3.23;;;26.40;30.30;;;;;;2265207;61;20369;-65
2021/07/19 09:00:20;0.00;0.00;0.62;0.00;0.00;0.62;6.97;3.87;;;26.40;30.20;;;;;;2265857;61;20764;-62
2021/07/19 09:03:06;0.00;0.00;0.62;0.00;0.00;0.62;6.50;3.93;;;26.40;30.00;;;;;;2266010;61;20370;-64
2021/07/19 09:05:51;0.00;0.00;0.62;0.00;0.00;0.62;5.20;4.20;;;26.40;30.00;;;;;;2265502;61;20365;-63
2021/07/19 09:08:46;0.00;0.00;0.62;0.00;0.00;0.62;9.43;4.30;;;26.30;29.80;;;;;;2265938;61;20380;-62
2021/07/19 09:11:30;0.00;0.00;0.62;0.00;0.00;0.62;9.47;3.97;;;26.30;29.90;;;;;;2266090;61;20586;-62
2021/07/19 09:14:15;0.00;0.00;0.62;0.00;0.00;0.62;5.60;3.33;;;26.30;29.80;;;;;;2265113;61;20434;-64
2021/07/19 09:17:00;0.00;0.00;0.62;0.00;0.00;0.62;3.90;3.37;;;26.30;29.80;;;;;;2265791;61;20381;-62
2021/07/19 09:19:46;0.00;0.00;0.62;0.00;0.00;0.62;5.10;3.43;;;26.30;30.00;;;;;;2265588;61;20388;-62
2021/07/19 09:22:33;0.00;0.00;0.62;0.00;0.00;0.62;4.23;3.70;;;26.30;30.10;;;;;;2265772;61;20361;-63
2021/07/19 09:25:17;0.00;0.00;0.62;0.00;0.00;0.62;7.07;4.00;;;26.30;30.00;;;;;;2265859;61;20362;-62
2021/07/19 09:28:06;0.00;0.00;0.62;0.00;0.00;0.62;4.53;3.77;;;26.30;29.70;;;;;;2265515;61;20377;-63
2021/07/19 09:30:50;0.00;0.00;0.62;0.00;0.00;0.62;4.50;3.63;;;26.30;29.50;;;;;;2265730;61;20777;-63
2021/07/19 09:33:35;0.00;0.00;0.62;0.00;0.00;0.62;5.90;4.33;;;26.30;29.60;;;;;;2266036;61;20384;-62
2021/07/19 09:36:24;0.00;0.00;0.62;0.00;0.00;0.62;5.90;4.10;;;26.30;29.70;;;;;;2265084;61;20360;-65
2021/07/19 09:39:09;0.00;0.00;0.62;0.00;0.00;0.62;6.50;4.27;;;26.30;29.80;;;;;;2265962;61;20698;-60
2021/07/19 09:42:10;0.00;0.00;0.62;0.00;0.00;0.62;4.90;3.30;;;26.30;29.80;;;;;;2265511;61;20373;-65
2021/07/19 09:44:56;0.00;0.00;0.62;0.00;0.00;0.62;4.03;3.23;;;26.30;29.60;;;;;;2265129;61;20384;-62
2021/07/19 09:47:41;0.00;0.00;0.62;0.00;0.00;0.62;5.53;4.00;;;26.30;29.50;;;;;;2265897;61;20381;-62
2021/07/19 09:50:26;0.00;0.00;0.62;0.00;0.00;0.62;4.40;3.70;;;26.40;29.60;;;;;;2265429;61;20427;-65
2021/07/19 09:53:13;0.00;0.00;0.62;0.00;0.00;0.62;5.00;4.07;;;26.30;29.50;;;;;;2265924;61;20748;-64
2021/07/19 09:56:16;0.00;0.00;0.62;0.00;0.00;0.62;6.07;4.13;;;26.30;29.20;;;;;;2265834;61;20365;-63
2021/07/19 09:59:07;0.00;0.00;0.62;0.00;0.00;0.62;4.33;3.50;;;26.30;29.40;;;;;;2265626;61;20376;-62
2021/07/19 10:01:53;0.00;0.00;0.62;0.00;0.00;0.62;5.73;4.00;;;26.30;29.60;;;;;;2265853;61;20601;-63
2021/07/19 10:04:42;0.00;0.00;0.62;0.00;0.00;0.62;5.17;4.07;;;26.30;29.60;;;;;;2265338;61;20433;-63
2021/07/19 10:07:27;0.00;0.00;0.62;0.00;0.00;0.62;5.07;4.30;;;26.40;29.80;;;;;;2265662;61;20423;-62
2021/07/19 10:10:15;0.00;0.00;0.62;0.00;0.00;0.62;4.77;4.27;;;26.40;30.00;;;;;;2265850;61;20365;-62
2021/07/19 10:13:00;0.00;0.00;0.62;0.00;0.00;0.62;5.67;4.67;;;26.30;29.90;;;;;;2265147;61;20732;-63
2021/07/19 10:15:47;0.00;0.00;0.62;0.00;0.00;0.62;6.77;4.10;;;26.40;30.00;;;;;;2265775;61;20419;-61
2021/07/19 10:18:34;0.00;0.00;0.62;0.00;0.00;0.62;5.40;4.43;;;26.40;29.80;;;;;;2265297;61;20411;-63
2021/07/19 10:21:19;0.00;0.00;0.62;0.00;0.00;0.62;7.10;4.30;;;26.40;29.50;;;;;;2265550;61;20397;-64
2021/07/19 10:24:07;0.00;0.00;0.62;0.00;0.00;0.62;5.93;4.60;;;26.40;29.40;;;;;;2265851;61;20399;-64
2021/07/19 10:26:53;0.00;0.00;0.62;0.00;0.00;0.62;5.10;4.60;;;26.40;29.40;;;;;;2265021;61;20385;-62
2021/07/19 10:29:38;0.00;0.00;0.62;0.00;0.00;0.62;4.93;3.97;;;26.40;29.60;;;;;;2265770;61;20368;-62
2021/07/19 10:32:23;0.00;0.00;0.62;0.00;0.00;0.62;5.60;4.00;;;26.40;29.60;;;;;;2265390;61;20369;-62
2021/07/19 10:35:09;0.00;0.00;0.62;0.00;0.00;0.62;5.10;4.60;;;26.40;29.70;;;;;;2264904;61;20587;-62
2021/07/19 10:37:58;0.00;0.00;0.62;0.00;0.00;0.62;6.67;5.13;;;26.40;29.60;;;;;;2265766;61;20388;-63
2021/07/19 10:40:44;0.00;0.00;0.62;0.00;0.00;0.62;5.10;4.10;;;26.40;29.60;;;;;;2265686;61;20392;-61
2021/07/19 10:43:30;0.00;0.00;0.62;0.00;0.00;0.62;8.30;4.63;;;26.40;29.50;;;;;;2266284;61;20360;-62
2021/07/19 10:46:16;0.00;0.00;0.62;0.00;0.00;0.62;10.20;5.17;;;26.40;29.50;;;;;;2266311;61;20360;-63
2021/07/19 10:49:07;0.00;0.00;0.62;0.00;0.00;0.62;6.10;5.00;;;26.50;30.10;;;;;;2265571;61;20376;-61
2021/07/19 10:51:52;0.00;0.00;0.62;0.00;0.00;0.62;7.43;5.10;;;26.40;29.70;;;;;;2266308;61;20736;-63
2021/07/19 10:54:47;0.00;0.00;0.62;0.00;0.00;0.62;6.30;4.40;;;26.40;29.50;;;;;;2266430;61;20368;-61
2021/07/19 10:57:37;0.00;0.00;0.62;0.00;0.00;0.62;5.97;4.77;;;26.40;29.50;;;;;;2265824;61;20376;-63
2021/07/19 11:00:25;0.00;0.00;0.62;0.00;0.00;0.62;7.47;4.67;;;26.40;29.60;;;;;;2266469;61;20373;-62